Brandenburg, KY

2:18 AM EDT on August 26, 2016 (GMT -0400)
Old Weldon | | Change Station

Elev 636 ft 37.97 °N, 86.13 °W | Updated 11 seconds ago

Clear
Clear
73.0 °F
Feels Like 73.0 °F
N
0.0
Wind Variable Wind from SW
Gusts 0.0 mph

Today
High -- | Low -- °F
--% Chance of Precip.
Yesterday
High -- | Low -- °F
Precip. -- in
Pressure 30.08 in
Visibility 10.0 miles
Clouds Clear
Dew Point 72 °F
Humidity 95%
Rainfall 0.00 in
Snow Depth Not available.
7:09 AM 8:21 PM
Last Quarter, 38% visible
METAR KFTK 260558Z AUTO 00000KT 10SM CLR 21/21 A3009 RMK AO2 DZB41E47 SLP185 P0000 60000 T02130208 10280 20213 52005
Pressure 30.08 in
Visibility 10.0 miles
Clouds Clear
Dew Point 72 °F
Humidity 95%
Rainfall 0.00 in
Snow Depth Not available.
7:09 AM 8:21 PM
Last Quarter, 38% visible
METAR KFTK 260558Z AUTO 00000KT 10SM CLR 21/21 A3009 RMK AO2 DZB41E47 SLP185 P0000 60000 T02130208 10280 20213 52005

10-Day Weather Forecast

Almanac

Astronomy

Aug. 26, 2016 Rise Set
Actual Time
Civil Twilight
Nautical Twilight
Astronomical Twilight
Moon
Length of Visible Light
Length of Day
Tomorrow will be .
, % of the Moon is Illuminated

Today's Extremes

State Highs State Lows

Community

WunderPhotos

Upload Photos

1,935,057 photos uploaded!

WunderBlog® & News

Nearby

Air Quality

  Air Quality AQ Index Pollutant
Not available.

Snow Depth

Station Depth Elevation

Earthquake Activity

City Distance Mag. Time & Date
Minimum magnitude displayed is 2.5.

Coastal Water Temperatures

Place Temperature

Stations

Nearby Weather Stations

Station Location Temp. Windchill Dew Point Humidity Wind Precip. Elev Updated Type
                   

Watches & Warnings

There are currently no watches in effect.